Weather at Elizabeth City Regional Airport & Coast Guard Air Station

Public forecast

Using degrees Fahrenheit for public forecast. Weather courtesy of forecast.io.

Current aviation weather report (METAR) for Elizabeth City Regional Airport & Coast Guard Air Station

Report is more than 6 hours old.

2022/11/14 14:54 (retrieved 2 years ago)

KECG 141454Z 35010KT 10SM CLR 10/02 A3038 RMK AO2 SLP287 T01000017 51018

Aviation forecast (TAF) for Elizabeth City Regional Airport & Coast Guard Air Station

Forecast is more than 12 hours old.

2023/02/22 18:42 (retrieved 1 year ago)

TAF TAF KECG 221739Z 2218/2318 13010KT P6SM SCT060 FM222200 18010KT P6SM SCT250 FM230400 21012G20KT P6SM SCT250 FM231500 24015G25KT P6SM SCT100